Chemult, Oregon
Current Conditions -  °F | °C
As of 6:55 AM on Monday 22 Dec 2014 (Local Time) from KBDN Reporting Station
Broken Clouds Broken Clouds  
Wind Chill: 41°   Ceiling: 2300
Heat Index: 41°   Visibility: 10mi
Dew Point: 37°   Wind: 3mph
Humidity: 87%   Direction: 270°W
Pressure: 30.23"   Gusts: NA
Location:  43.22°N, 121.79°W
Report Text: KBDN 221455Z AUTO 27003KT 10SM BKN023 BKN028 05/03 A3023 RMK AO2
Loading
Personal Weather Stations






























Interactive Weather Map New forecast layout! Learn more

10-Day Weather Forecast

Advertisements
Track Severe Weather on mobile